sensor_id;sensor_type;location;lat;lon;timestamp;temperature;humidity
34472;DHT22;20710;49.976;19.836;2022-12-18T00:02:28;-2.81;83.67
34472;DHT22;20710;49.976;19.836;2022-12-18T00:08:32;-2.82;83.59
34472;DHT22;20710;49.976;19.836;2022-12-18T00:14:41;-2.81;83.58
34472;DHT22;20710;49.976;19.836;2022-12-18T00:20:45;-2.82;83.64
34472;DHT22;20710;49.976;19.836;2022-12-18T00:26:55;-2.81;83.50
34472;DHT22;20710;49.976;19.836;2022-12-18T00:33:00;-2.81;83.47
34472;DHT22;20710;49.976;19.836;2022-12-18T00:39:05;-2.81;83.37
34472;DHT22;20710;49.976;19.836;2022-12-18T00:45:13;-2.80;83.36
34472;DHT22;20710;49.976;19.836;2022-12-18T00:51:19;-2.78;83.31
34472;DHT22;20710;49.976;19.836;2022-12-18T00:57:32;-2.77;83.33
34472;DHT22;20710;49.976;19.836;2022-12-18T01:03:37;-2.75;83.31
34472;DHT22;20710;49.976;19.836;2022-12-18T01:15:59;-2.74;83.23
34472;DHT22;20710;49.976;19.836;2022-12-18T01:22:06;-2.74;83.13
34472;DHT22;20710;49.976;19.836;2022-12-18T01:28:19;-2.78;83.12
34472;DHT22;20710;49.976;19.836;2022-12-18T01:34:34;-2.74;83.10
34472;DHT22;20710;49.976;19.836;2022-12-18T01:40:46;-2.74;83.12
34472;DHT22;20710;49.976;19.836;2022-12-18T01:46:54;-2.75;83.01
34472;DHT22;20710;49.976;19.836;2022-12-18T01:53:15;-2.78;83.03
34472;DHT22;20710;49.976;19.836;2022-12-18T01:59:23;-2.77;82.87
34472;DHT22;20710;49.976;19.836;2022-12-18T02:12:42;-2.78;82.83
34472;DHT22;20710;49.976;19.836;2022-12-18T02:26:17;-2.77;82.83
34472;DHT22;20710;49.976;19.836;2022-12-18T02:45:59;-2.74;82.84
34472;DHT22;20710;49.976;19.836;2022-12-18T02:52:47;-2.72;82.82
34472;DHT22;20710;49.976;19.836;2022-12-18T02:59:21;-2.70;82.81
34472;DHT22;20710;49.976;19.836;2022-12-18T03:31:58;-2.65;82.56
34472;DHT22;20710;49.976;19.836;2022-12-18T03:38:11;-2.67;82.51
34472;DHT22;20710;49.976;19.836;2022-12-18T03:51:14;-2.67;82.44
34472;DHT22;20710;49.976;19.836;2022-12-18T03:57:21;-2.67;82.48
34472;DHT22;20710;49.976;19.836;2022-12-18T04:03:32;-2.67;82.41
34472;DHT22;20710;49.976;19.836;2022-12-18T04:46:52;-2.74;82.05
34472;DHT22;20710;49.976;19.836;2022-12-18T04:52:59;-2.77;82.03
34472;DHT22;20710;49.976;19.836;2022-12-18T05:05:41;-2.84;82.05
34472;DHT22;20710;49.976;19.836;2022-12-18T05:11:43;-2.84;82.06
34472;DHT22;20710;49.976;19.836;2022-12-18T05:17:44;-2.80;82.05
34472;DHT22;20710;49.976;19.836;2022-12-18T05:23:46;-2.70;82.15
34472;DHT22;20710;49.976;19.836;2022-12-18T05:29:47;-2.68;82.20
34472;DHT22;20710;49.976;19.836;2022-12-18T05:35:54;-2.64;82.13
34472;DHT22;20710;49.976;19.836;2022-12-18T05:41:56;-2.60;82.09
34472;DHT22;20710;49.976;19.836;2022-12-18T05:47:57;-2.61;82.02
34472;DHT22;20710;49.976;19.836;2022-12-18T05:53:58;-2.61;82.06
34472;DHT22;20710;49.976;19.836;2022-12-18T06:00:00;-2.61;81.85
34472;DHT22;20710;49.976;19.836;2022-12-18T06:06:02;-2.61;81.90
34472;DHT22;20710;49.976;19.836;2022-12-18T06:12:06;-2.58;81.96
34472;DHT22;20710;49.976;19.836;2022-12-18T06:18:08;-2.57;81.93
34472;DHT22;20710;49.976;19.836;2022-12-18T06:24:11;-2.58;81.93
34472;DHT22;20710;49.976;19.836;2022-12-18T06:30:13;-2.58;81.96
34472;DHT22;20710;49.976;19.836;2022-12-18T06:36:15;-2.58;81.85
34472;DHT22;20710;49.976;19.836;2022-12-18T06:42:17;-2.60;81.82
34472;DHT22;20710;49.976;19.836;2022-12-18T06:48:19;-2.58;81.92
34472;DHT22;20710;49.976;19.836;2022-12-18T06:54:21;-2.54;81.68
34472;DHT22;20710;49.976;19.836;2022-12-18T07:00:22;-2.54;81.64
34472;DHT22;20710;49.976;19.836;2022-12-18T07:06:26;-2.46;81.67
34472;DHT22;20710;49.976;19.836;2022-12-18T07:12:27;-2.43;81.54
34472;DHT22;20710;49.976;19.836;2022-12-18T07:18:29;-2.35;81.46
34472;DHT22;20710;49.976;19.836;2022-12-18T07:24:33;-2.30;81.34
34472;DHT22;20710;49.976;19.836;2022-12-18T07:30:37;-2.25;81.07
34472;DHT22;20710;49.976;19.836;2022-12-18T07:36:39;-2.16;81.15
34472;DHT22;20710;49.976;19.836;2022-12-18T07:42:41;-2.03;81.14
34472;DHT22;20710;49.976;19.836;2022-12-18T07:48:45;-2.01;80.43
34472;DHT22;20710;49.976;19.836;2022-12-18T07:54:47;-1.90;80.15
34472;DHT22;20710;49.976;19.836;2022-12-18T08:00:50;-1.80;80.06
34472;DHT22;20710;49.976;19.836;2022-12-18T08:06:53;-1.74;79.94
34472;DHT22;20710;49.976;19.836;2022-12-18T08:12:54;-1.75;79.42
34472;DHT22;20710;49.976;19.836;2022-12-18T08:18:56;-1.68;79.03
34472;DHT22;20710;49.976;19.836;2022-12-18T08:24:58;-1.54;78.94
34472;DHT22;20710;49.976;19.836;2022-12-18T08:30:59;-1.45;78.32
34472;DHT22;20710;49.976;19.836;2022-12-18T08:37:00;-1.42;78.16
34472;DHT22;20710;49.976;19.836;2022-12-18T08:43:02;-1.45;77.58
34472;DHT22;20710;49.976;19.836;2022-12-18T08:49:23;-1.26;77.59
34472;DHT22;20710;49.976;19.836;2022-12-18T08:55:24;-1.21;77.04
34472;DHT22;20710;49.976;19.836;2022-12-18T09:01:26;-1.17;76.98
34472;DHT22;20710;49.976;19.836;2022-12-18T09:07:27;-1.18;76.61
34472;DHT22;20710;49.976;19.836;2022-12-18T09:13:29;-1.17;76.35
34472;DHT22;20710;49.976;19.836;2022-12-18T09:19:30;-1.12;76.19
34472;DHT22;20710;49.976;19.836;2022-12-18T09:25:32;-1.19;76.18
34472;DHT22;20710;49.976;19.836;2022-12-18T09:31:38;-1.04;76.09
34472;DHT22;20710;49.976;19.836;2022-12-18T09:37:39;-0.87;75.64
34472;DHT22;20710;49.976;19.836;2022-12-18T09:43:53;-0.87;75.10
34472;DHT22;20710;49.976;19.836;2022-12-18T09:50:00;-0.77;75.08
34472;DHT22;20710;49.976;19.836;2022-12-18T09:56:05;-0.56;75.16
34472;DHT22;20710;49.976;19.836;2022-12-18T10:02:25;-0.07;75.28
34472;DHT22;20710;49.976;19.836;2022-12-18T10:09:00;0.82;74.00
34472;DHT22;20710;49.976;19.836;2022-12-18T10:28:15;2.12;67.46
34472;DHT22;20710;49.976;19.836;2022-12-18T10:34:17;2.19;65.11
34472;DHT22;20710;49.976;19.836;2022-12-18T10:40:19;1.98;64.87
34472;DHT22;20710;49.976;19.836;2022-12-18T10:46:21;2.08;65.66
34472;DHT22;20710;49.976;19.836;2022-12-18T10:52:25;2.19;64.66
34472;DHT22;20710;49.976;19.836;2022-12-18T10:58:34;1.97;64.47
34472;DHT22;20710;49.976;19.836;2022-12-18T11:04:38;1.74;64.68
34472;DHT22;20710;49.976;19.836;2022-12-18T11:10:44;1.34;64.55
34472;DHT22;20710;49.976;19.836;2022-12-18T11:16:49;1.12;65.66
34472;DHT22;20710;49.976;19.836;2022-12-18T11:22:57;1.21;66.19
34472;DHT22;20710;49.976;19.836;2022-12-18T11:29:16;1.27;65.30
34472;DHT22;20710;49.976;19.836;2022-12-18T11:35:35;1.12;65.13
34472;DHT22;20710;49.976;19.836;2022-12-18T11:41:48;0.82;65.83
34472;DHT22;20710;49.976;19.836;2022-12-18T11:48:22;0.54;65.49
34472;DHT22;20710;49.976;19.836;2022-12-18T11:54:24;0.31;65.89
34472;DHT22;20710;49.976;19.836;2022-12-18T12:00:25;0.10;66.82
34472;DHT22;20710;49.976;19.836;2022-12-18T12:07:02;0.04;67.40
34472;DHT22;20710;49.976;19.836;2022-12-18T12:38:40;-0.34;66.41
34472;DHT22;20710;49.976;19.836;2022-12-18T12:44:48;-0.35;66.61
34472;DHT22;20710;49.976;19.836;2022-12-18T12:50:51;-0.47;66.73
34472;DHT22;20710;49.976;19.836;2022-12-18T12:57:15;-0.59;67.19
34472;DHT22;20710;49.976;19.836;2022-12-18T13:16:06;-0.92;68.82
34472;DHT22;20710;49.976;19.836;2022-12-18T13:22:22;-1.00;69.12
34472;DHT22;20710;49.976;19.836;2022-12-18T13:41:26;-1.26;70.14
34472;DHT22;20710;49.976;19.836;2022-12-18T13:47:37;-1.36;70.41
34472;DHT22;20710;49.976;19.836;2022-12-18T13:53:52;-1.49;70.75
34472;DHT22;20710;49.976;19.836;2022-12-18T13:59:54;-1.54;71.18
34472;DHT22;20710;49.976;19.836;2022-12-18T14:06:03;-1.70;71.50
34472;DHT22;20710;49.976;19.836;2022-12-18T14:12:11;-1.90;71.81
34472;DHT22;20710;49.976;19.836;2022-12-18T14:18:56;-2.13;72.27
34472;DHT22;20710;49.976;19.836;2022-12-18T14:25:24;-2.46;73.18
34472;DHT22;20710;49.976;19.836;2022-12-18T14:31:30;-2.80;73.30
34472;DHT22;20710;49.976;19.836;2022-12-18T14:37:34;-3.06;73.49
34472;DHT22;20710;49.976;19.836;2022-12-18T14:43:38;-3.36;74.54
34472;DHT22;20710;49.976;19.836;2022-12-18T14:49:42;-3.59;75.00
34472;DHT22;20710;49.976;19.836;2022-12-18T14:55:48;-3.86;75.60
34472;DHT22;20710;49.976;19.836;2022-12-18T15:02:23;-4.14;75.98
34472;DHT22;20710;49.976;19.836;2022-12-18T15:08:36;-4.16;76.53
34472;DHT22;20710;49.976;19.836;2022-12-18T15:14:41;-4.14;77.30
34472;DHT22;20710;49.976;19.836;2022-12-18T15:26:57;-4.21;77.51
34472;DHT22;20710;49.976;19.836;2022-12-18T15:33:24;-4.24;78.11
34472;DHT22;20710;49.976;19.836;2022-12-18T15:39:28;-4.28;78.17
34472;DHT22;20710;49.976;19.836;2022-12-18T15:45:30;-4.37;78.16
34472;DHT22;20710;49.976;19.836;2022-12-18T15:51:36;-4.46;78.12
34472;DHT22;20710;49.976;19.836;2022-12-18T15:57:38;-4.55;78.66
34472;DHT22;20710;49.976;19.836;2022-12-18T16:03:39;-4.61;78.68
34472;DHT22;20710;49.976;19.836;2022-12-18T16:09:41;-4.87;76.85
34472;DHT22;20710;49.976;19.836;2022-12-18T16:15:45;-5.23;75.99
34472;DHT22;20710;49.976;19.836;2022-12-18T16:21:48;-5.55;75.43
34472;DHT22;20710;49.976;19.836;2022-12-18T16:27:53;-5.67;76.58
34472;DHT22;20710;49.976;19.836;2022-12-18T16:34:21;-5.83;76.17
34472;DHT22;20710;49.976;19.836;2022-12-18T16:40:23;-6.08;75.21
34472;DHT22;20710;49.976;19.836;2022-12-18T16:46:36;-6.16;75.07
34472;DHT22;20710;49.976;19.836;2022-12-18T16:52:39;-6.25;74.56
34472;DHT22;20710;49.976;19.836;2022-12-18T16:58:41;-6.37;74.73
34472;DHT22;20710;49.976;19.836;2022-12-18T17:04:44;-6.57;73.72
34472;DHT22;20710;49.976;19.836;2022-12-18T17:10:45;-6.67;74.11
34472;DHT22;20710;49.976;19.836;2022-12-18T17:16:48;-6.77;74.81
34472;DHT22;20710;49.976;19.836;2022-12-18T17:22:50;-6.89;74.65
34472;DHT22;20710;49.976;19.836;2022-12-18T17:28:51;-7.06;74.33
34472;DHT22;20710;49.976;19.836;2022-12-18T17:34:53;-7.23;73.39
34472;DHT22;20710;49.976;19.836;2022-12-18T17:41:01;-7.43;73.81
34472;DHT22;20710;49.976;19.836;2022-12-18T17:47:03;-7.51;74.01
34472;DHT22;20710;49.976;19.836;2022-12-18T17:53:05;-7.68;73.57
34472;DHT22;20710;49.976;19.836;2022-12-18T17:59:07;-7.82;73.25
34472;DHT22;20710;49.976;19.836;2022-12-18T18:05:09;-7.91;73.53
34472;DHT22;20710;49.976;19.836;2022-12-18T18:11:16;-7.94;73.92
34472;DHT22;20710;49.976;19.836;2022-12-18T18:17:37;-7.95;73.66
34472;DHT22;20710;49.976;19.836;2022-12-18T18:23:38;-7.96;73.87
34472;DHT22;20710;49.976;19.836;2022-12-18T18:29:40;-8.06;74.36
34472;DHT22;20710;49.976;19.836;2022-12-18T18:35:42;-8.17;74.98
34472;DHT22;20710;49.976;19.836;2022-12-18T18:41:45;-8.26;75.59
34472;DHT22;20710;49.976;19.836;2022-12-18T18:47:46;-8.24;75.68
34472;DHT22;20710;49.976;19.836;2022-12-18T18:53:51;-8.30;76.37
34472;DHT22;20710;49.976;19.836;2022-12-18T18:59:53;-8.32;76.42
34472;DHT22;20710;49.976;19.836;2022-12-18T19:05:58;-8.41;76.59
34472;DHT22;20710;49.976;19.836;2022-12-18T19:12:24;-8.32;77.92
34472;DHT22;20710;49.976;19.836;2022-12-18T19:18:53;-8.09;78.31
34472;DHT22;20710;49.976;19.836;2022-12-18T19:25:07;-7.99;77.28
34472;DHT22;20710;49.976;19.836;2022-12-18T19:31:19;-8.05;76.37
34472;DHT22;20710;49.976;19.836;2022-12-18T19:37:24;-8.23;75.04
34472;DHT22;20710;49.976;19.836;2022-12-18T19:50:09;-8.37;75.40
34472;DHT22;20710;49.976;19.836;2022-12-18T19:56:19;-8.55;75.22
34472;DHT22;20710;49.976;19.836;2022-12-18T20:02:24;-8.72;73.33
34472;DHT22;20710;49.976;19.836;2022-12-18T20:08:28;-8.96;72.55
34472;DHT22;20710;49.976;19.836;2022-12-18T20:21:36;-9.21;73.12
34472;DHT22;20710;49.976;19.836;2022-12-18T20:28:05;-9.37;73.16
34472;DHT22;20710;49.976;19.836;2022-12-18T20:34:06;-9.44;72.97
34472;DHT22;20710;49.976;19.836;2022-12-18T20:40:24;-9.62;71.20
34472;DHT22;20710;49.976;19.836;2022-12-18T20:52:56;-9.78;75.74
34472;DHT22;20710;49.976;19.836;2022-12-18T20:59:03;-9.80;74.65
34472;DHT22;20710;49.976;19.836;2022-12-18T21:05:35;-9.82;74.15
34472;DHT22;20710;49.976;19.836;2022-12-18T21:26:21;-9.98;70.70
34472;DHT22;20710;49.976;19.836;2022-12-18T21:33:04;-10.01;71.46
34472;DHT22;20710;49.976;19.836;2022-12-18T21:58:50;-9.90;71.16
34472;DHT22;20710;49.976;19.836;2022-12-18T22:12:37;-10.07;68.32
34472;DHT22;20710;49.976;19.836;2022-12-18T22:18:45;-10.31;68.75
34472;DHT22;20710;49.976;19.836;2022-12-18T22:24:47;-10.38;69.29
34472;DHT22;20710;49.976;19.836;2022-12-18T22:30:48;-10.45;69.41
34472;DHT22;20710;49.976;19.836;2022-12-18T22:36:50;-10.35;69.88
34472;DHT22;20710;49.976;19.836;2022-12-18T22:43:16;-6.02;67.48
34472;DHT22;20710;49.976;19.836;2022-12-18T22:49:21;-3.71;56.60
34472;DHT22;20710;49.976;19.836;2022-12-18T22:55:22;-2.18;49.44
34472;DHT22;20710;49.976;19.836;2022-12-18T23:01:26;-1.37;42.94
34472;DHT22;20710;49.976;19.836;2022-12-18T23:07:31;-0.77;40.73
34472;DHT22;20710;49.976;19.836;2022-12-18T23:13:34;-0.31;39.38
34472;DHT22;20710;49.976;19.836;2022-12-18T23:19:36;-0.14;38.63
34472;DHT22;20710;49.976;19.836;2022-12-18T23:25:37;-0.03;38.16
34472;DHT22;20710;49.976;19.836;2022-12-18T23:31:39;0.24;36.96
34472;DHT22;20710;49.976;19.836;2022-12-18T23:37:40;0.33;34.92
34472;DHT22;20710;49.976;19.836;2022-12-18T23:43:42;0.20;33.66
34472;DHT22;20710;49.976;19.836;2022-12-18T23:49:45;0.27;32.93
34472;DHT22;20710;49.976;19.836;2022-12-18T23:55:46;-0.29;33.64
